createdAt,value
2022-08-22T00:01:55.800Z,23.10
2022-08-22T00:02:48.063Z,38.10
2022-08-22T00:02:58.815Z,20.80
2022-08-22T00:02:59.810Z,23.30
2022-08-22T00:03:03.567Z,22.30
2022-08-22T00:04:57.474Z,17.60
2022-08-22T00:07:30.620Z,21.80
2022-08-22T00:10:04.340Z,21.20
2022-08-22T00:13:17.623Z,17.60
2022-08-22T00:15:52.076Z,19.90
2022-08-22T00:18:35.302Z,26.90
2022-08-22T00:21:22.421Z,23.60
2022-08-22T00:24:17.627Z,19.40
2022-08-22T00:27:10.587Z,28.40
2022-08-22T00:29:46.026Z,22.40
2022-08-22T00:32:13.115Z,24.10
2022-08-22T00:34:51.282Z,23.30
2022-08-22T00:37:32.667Z,24.00
2022-08-22T00:40:09.059Z,27.20
2022-08-22T00:43:15.811Z,14.40
2022-08-22T00:46:01.703Z,18.90
2022-08-22T00:48:43.700Z,20.50
2022-08-22T00:51:53.037Z,23.60
2022-08-22T00:54:44.763Z,15.40
2022-08-22T00:57:40.278Z,19.10
2022-08-22T01:00:13.773Z,21.60
2022-08-22T01:02:59.972Z,19.80
2022-08-22T01:05:42.175Z,16.50
2022-08-22T01:08:34.049Z,20.70
2022-08-22T01:14:04.348Z,27.90
2022-08-22T01:17:03.652Z,22.60
2022-08-22T01:19:53.034Z,17.10
2022-08-22T01:22:50.280Z,22.60
2022-08-22T01:25:32.626Z,16.70
2022-08-22T01:28:16.667Z,17.90
2022-08-22T01:31:08.810Z,20.10
2022-08-22T01:34:13.398Z,24.10
2022-08-22T01:36:40.755Z,25.30
2022-08-22T01:39:37.158Z,16.90
2022-08-22T01:42:15.175Z,21.10
2022-08-22T01:45:06.243Z,20.30
2022-08-22T01:47:47.523Z,22.10
2022-08-22T01:50:21.593Z,13.60
2022-08-22T01:53:11.884Z,14.90
2022-08-22T01:56:00.657Z,13.50
2022-08-22T01:58:33.494Z,27.80
2022-08-22T02:01:13.485Z,13.40
2022-08-22T02:04:14.850Z,13.40
2022-08-22T02:07:06.469Z,21.40
2022-08-22T02:10:07.903Z,20.40
2022-08-22T02:12:41.589Z,18.20
2022-08-22T02:15:14.869Z,13.20
2022-08-22T02:18:01.029Z,18.70
2022-08-22T02:21:02.653Z,10.90
2022-08-22T02:23:56.734Z,20.00
2022-08-22T02:27:04.442Z,17.10
2022-08-22T02:29:42.954Z,21.30
2022-08-22T02:32:28.838Z,15.90
2022-08-22T02:34:55.930Z,17.20
2022-08-22T02:37:37.477Z,16.60
2022-08-22T02:40:27.540Z,16.00
2022-08-22T02:43:09.560Z,15.70
2022-08-22T02:46:08.045Z,22.50
2022-08-22T02:49:02.667Z,11.70
2022-08-22T02:51:48.439Z,17.50
2022-08-22T02:54:37.490Z,11.90
2022-08-22T02:57:39.714Z,15.90
2022-08-22T03:00:31.720Z,11.70
2022-08-22T03:03:00.070Z,13.20
2022-08-22T03:05:41.966Z,11.20
2022-08-22T03:08:23.348Z,14.70
2022-08-22T03:11:12.617Z,17.30
2022-08-22T03:14:17.451Z,12.20
2022-08-22T03:17:21.199Z,14.40
2022-08-22T03:20:20.873Z,10.50
2022-08-22T03:23:02.846Z,14.10
2022-08-22T03:25:46.201Z,16.70
2022-08-22T03:28:23.678Z,14.10
2022-08-22T03:31:17.288Z,12.30
2022-08-22T03:33:45.788Z,10.50
2022-08-22T03:36:15.704Z,11.40
2022-08-22T03:39:04.194Z,16.90
2022-08-22T03:41:47.278Z,12.00
2022-08-22T03:44:17.474Z,13.80
2022-08-22T03:47:13.321Z,7.00
2022-08-22T03:50:10.969Z,13.20
2022-08-22T03:53:15.338Z,13.30
2022-08-22T03:56:05.277Z,12.90
2022-08-22T03:58:49.656Z,16.10
2022-08-22T04:01:31.919Z,17.40
2022-08-22T04:04:25.181Z,11.50
2022-08-22T04:07:33.314Z,14.30
2022-08-22T04:10:00.633Z,22.30
2022-08-22T04:12:49.711Z,12.20
2022-08-22T04:15:54.444Z,11.10
2022-08-22T04:18:35.240Z,13.70
2022-08-22T04:21:23.948Z,16.10
2022-08-22T04:24:24.488Z,18.00
2022-08-22T04:27:03.860Z,14.30
2022-08-22T04:29:36.875Z,12.90
2022-08-22T04:32:37.708Z,17.60
2022-08-22T04:35:34.210Z,17.70
2022-08-22T04:38:26.825Z,12.30
2022-08-22T04:41:13.986Z,17.30
2022-08-22T04:43:50.252Z,11.80
2022-08-22T04:46:38.905Z,20.80
2022-08-22T04:49:31.448Z,9.50
2022-08-22T04:52:21.904Z,13.30
2022-08-22T04:55:30.630Z,16.00
2022-08-22T04:58:23.218Z,13.30
2022-08-22T05:01:12.097Z,12.80
2022-08-22T05:03:46.043Z,15.50
2022-08-22T05:06:19.361Z,14.90
2022-08-22T05:08:53.799Z,16.90
2022-08-22T05:11:23.831Z,14.40
2022-08-22T05:14:00.245Z,12.70
2022-08-22T05:16:40.852Z,12.20
2022-08-22T05:19:23.007Z,16.60
2022-08-22T05:21:56.145Z,16.00
2022-08-22T05:24:28.102Z,17.20
2022-08-22T05:27:01.117Z,11.10
2022-08-22T05:29:31.558Z,15.20
2022-08-22T05:32:03.806Z,15.50
2022-08-22T05:34:42.296Z,12.40
2022-08-22T05:37:18.028Z,16.90
2022-08-22T05:39:59.721Z,12.60
2022-08-22T05:42:31.815Z,17.40
2022-08-22T05:45:03.342Z,11.70
2022-08-22T05:47:45.649Z,17.80
2022-08-22T05:50:18.554Z,21.80
2022-08-22T05:52:59.197Z,12.60
2022-08-22T05:55:41.608Z,15.40
2022-08-22T05:58:27.603Z,11.50
2022-08-22T06:01:06.404Z,12.00
2022-08-22T06:04:12.059Z,16.30
2022-08-22T06:06:55.102Z,12.00
2022-08-22T06:09:37.334Z,14.40
2022-08-22T06:12:21.776Z,13.80
2022-08-22T06:15:29.048Z,9.10
2022-08-22T06:18:02.704Z,15.20
2022-08-22T06:20:46.153Z,17.20
2022-08-22T06:23:21.841Z,18.60
2022-08-22T06:25:52.858Z,11.50
2022-08-22T06:28:28.132Z,17.60
2022-08-22T06:30:57.854Z,13.90
2022-08-22T06:33:31.397Z,24.60
2022-08-22T06:36:26.440Z,17.80
2022-08-22T06:39:23.559Z,12.30
2022-08-22T06:42:14.507Z,14.60
2022-08-22T06:44:45.730Z,12.30
2022-08-22T06:47:19.447Z,18.00
2022-08-22T06:49:47.173Z,15.10
2022-08-22T06:52:22.622Z,17.40
2022-08-22T06:54:57.475Z,11.70
2022-08-22T06:57:36.099Z,11.10
2022-08-22T07:00:10.824Z,10.90
2022-08-22T07:02:48.896Z,7.90
2022-08-22T07:05:23.094Z,18.20
2022-08-22T07:07:52.405Z,15.30
2022-08-22T07:10:22.853Z,10.70
2022-08-22T07:12:54.355Z,20.90
2022-08-22T07:15:35.580Z,12.60
2022-08-22T07:18:25.175Z,10.60
2022-08-22T07:20:57.768Z,10.00
2022-08-22T07:23:37.395Z,9.80
2022-08-22T07:26:22.809Z,11.10
2022-08-22T07:28:58.365Z,15.50
2022-08-22T07:31:29.071Z,16.70
2022-08-22T07:34:19.273Z,15.90
2022-08-22T07:37:00.224Z,10.50
2022-08-22T07:39:38.628Z,14.90
2022-08-22T07:42:17.685Z,10.10
2022-08-22T07:44:47.857Z,13.10
2022-08-22T07:47:26.293Z,17.10
2022-08-22T07:50:03.957Z,8.90
2022-08-22T07:52:40.763Z,14.60
2022-08-22T07:55:22.965Z,10.60
2022-08-22T07:58:03.880Z,15.00
2022-08-22T08:00:32.647Z,12.40
2022-08-22T08:03:04.866Z,15.20
2022-08-22T08:05:36.181Z,14.30
2022-08-22T08:08:09.308Z,10.70
2022-08-22T08:10:42.930Z,11.30
2022-08-22T08:13:14.974Z,15.80
2022-08-22T08:15:46.069Z,17.70
2022-08-22T08:18:21.928Z,10.60
2022-08-22T08:21:00.257Z,15.30
2022-08-22T08:23:31.563Z,11.20
2022-08-22T08:26:20.637Z,10.00
2022-08-22T08:28:51.550Z,12.70
2022-08-22T08:31:45.310Z,6.10
2022-08-22T08:34:18.482Z,14.80
2022-08-22T08:37:04.179Z,7.60
2022-08-22T08:39:41.030Z,14.30
2022-08-22T08:42:30.064Z,17.90
2022-08-22T08:45:15.693Z,9.10
2022-08-22T08:48:01.308Z,12.90
2022-08-22T08:50:56.672Z,16.60
2022-08-22T08:53:43.217Z,15.40
2022-08-22T08:56:34.085Z,12.20
2022-08-22T08:59:18.836Z,9.80
2022-08-22T09:02:05.544Z,12.00
2022-08-22T09:05:07.868Z,14.80
2022-08-22T09:07:44.219Z,12.00
2022-08-22T09:10:42.292Z,12.20
2022-08-22T09:13:55.428Z,13.40
2022-08-22T09:19:40.735Z,13.70
2022-08-22T09:22:14.432Z,9.60
2022-08-22T09:25:12.262Z,9.70
2022-08-22T09:28:08.417Z,10.40
2022-08-22T09:31:48.088Z,16.00
2022-08-22T09:34:27.190Z,10.60
2022-08-22T09:37:26.142Z,15.90
2022-08-22T09:40:04.869Z,9.90
2022-08-22T09:43:06.395Z,8.80
2022-08-22T09:46:02.088Z,14.00
2022-08-22T09:48:35.763Z,19.80
2022-08-22T09:51:32.702Z,13.40
2022-08-22T09:54:32.828Z,11.80
2022-08-22T09:57:09.414Z,23.80
2022-08-22T10:00:17.568Z,14.60
2022-08-22T10:03:15.649Z,11.40
2022-08-22T10:05:46.569Z,18.50
2022-08-22T10:08:51.150Z,11.10
2022-08-22T10:11:26.158Z,8.30
2022-08-22T10:14:04.883Z,15.30
2022-08-22T10:16:55.504Z,10.00
2022-08-22T10:19:55.078Z,10.80
2022-08-22T10:22:41.512Z,16.50
2022-08-22T10:25:33.584Z,16.40
2022-08-22T10:28:16.902Z,18.00
2022-08-22T10:31:20.058Z,10.50
2022-08-22T10:34:05.628Z,7.30
2022-08-22T10:36:43.248Z,13.80
2022-08-22T10:39:15.262Z,15.90
2022-08-22T10:42:16.956Z,20.70
2022-08-22T10:45:23.653Z,16.30
2022-08-22T10:47:54.398Z,16.50
2022-08-22T10:50:36.527Z,19.10
2022-08-22T10:53:35.576Z,11.60
2022-08-22T10:56:16.196Z,15.50
2022-08-22T10:59:13.766Z,20.50
2022-08-22T11:01:59.796Z,27.80
2022-08-22T11:04:42.293Z,26.80
2022-08-22T11:07:29.172Z,37.90
2022-08-22T11:10:09.264Z,43.10
2022-08-22T11:12:44.567Z,35.10
2022-08-22T11:15:40.977Z,42.30
2022-08-22T11:18:18.106Z,43.10
2022-08-22T11:20:55.013Z,44.70
2022-08-22T11:23:40.845Z,37.50
2022-08-22T11:26:29.908Z,49.10
2022-08-22T11:29:13.392Z,33.10
2022-08-22T11:31:51.654Z,47.10
2022-08-22T11:34:40.658Z,49.40
2022-08-22T11:37:42.526Z,60.90
2022-08-22T11:40:20.577Z,44.50
2022-08-22T11:42:51.517Z,38.30
2022-08-22T11:45:25.071Z,44.60
2022-08-22T11:48:30.669Z,45.10
2022-08-22T11:51:13.713Z,69.30
2022-08-22T11:53:49.647Z,47.90
2022-08-22T11:56:31.496Z,47.20
2022-08-22T11:59:14.960Z,55.80
2022-08-22T12:01:55.590Z,51.70
2022-08-22T12:04:44.402Z,49.40
2022-08-22T12:07:27.037Z,47.70
2022-08-22T12:10:13.852Z,48.70
2022-08-22T12:12:51.329Z,63.30
2022-08-22T12:15:33.450Z,60.70
2022-08-22T12:18:21.784Z,79.80
2022-08-22T12:21:09.085Z,74.30
2022-08-22T12:23:58.350Z,67.70
2022-08-22T12:26:37.028Z,73.70
2022-08-22T12:29:16.919Z,68.30
2022-08-22T12:32:28.589Z,69.80
2022-08-22T12:35:14.910Z,82.00
2022-08-22T12:38:27.867Z,66.40
2022-08-22T12:41:02.894Z,66.30
2022-08-22T12:43:58.114Z,77.10
2022-08-22T12:47:05.165Z,55.40
2022-08-22T12:49:54.234Z,52.40
2022-08-22T12:52:33.486Z,53.20
2022-08-22T12:55:12.724Z,66.50
2022-08-22T12:57:46.208Z,59.50
2022-08-22T13:00:34.693Z,56.20
2022-08-22T13:03:10.045Z,61.20
2022-08-22T13:05:44.344Z,59.10
2022-08-22T13:08:35.856Z,52.80
2022-08-22T13:11:23.268Z,76.10
2022-08-22T13:14:00.601Z,81.70
2022-08-22T13:16:39.077Z,58.30
2022-08-22T13:19:13.583Z,56.20
2022-08-22T13:22:09.004Z,48.40
2022-08-22T13:24:51.837Z,68.20
2022-08-22T13:27:36.782Z,65.20
2022-08-22T13:30:13.540Z,47.80
2022-08-22T13:32:51.380Z,59.60
2022-08-22T13:35:42.199Z,52.80
2022-08-22T13:38:17.532Z,65.70
2022-08-22T13:40:56.031Z,53.10
2022-08-22T13:43:37.183Z,55.40
2022-08-22T13:46:11.015Z,45.50
2022-08-22T13:49:00.831Z,40.90
2022-08-22T13:51:57.763Z,43.20
2022-08-22T13:55:00.288Z,47.50
2022-08-22T13:57:38.037Z,41.90
2022-08-22T14:00:11.501Z,48.30
2022-08-22T14:02:59.430Z,47.50
2022-08-22T14:05:53.225Z,35.90
2022-08-22T14:08:20.761Z,31.80
2022-08-22T14:11:03.919Z,51.30
2022-08-22T14:13:48.354Z,46.80
2022-08-22T14:16:39.834Z,43.00
2022-08-22T14:21:45.686Z,47.60
2022-08-22T14:24:29.157Z,31.30
2022-08-22T14:27:29.128Z,31.70
2022-08-22T14:30:01.661Z,35.50
2022-08-22T14:32:49.289Z,22.00
2022-08-22T14:35:37.518Z,38.00
2022-08-22T14:38:33.286Z,25.30
2022-08-22T14:41:14.028Z,34.10
2022-08-22T14:44:24.109Z,36.00
2022-08-22T14:47:01.383Z,46.40
2022-08-22T14:49:59.090Z,44.10
2022-08-22T14:52:34.271Z,43.60
2022-08-22T14:55:26.172Z,36.70
2022-08-22T14:57:57.802Z,38.40
2022-08-22T15:00:36.203Z,48.00
2022-08-22T15:03:29.004Z,31.30
2022-08-22T15:06:00.480Z,31.10
2022-08-22T15:11:33.557Z,28.30
2022-08-22T15:14:29.932Z,36.30
2022-08-22T15:17:01.698Z,36.50
2022-08-22T15:19:43.084Z,34.70
2022-08-22T15:22:25.922Z,44.30
2022-08-22T15:25:02.693Z,27.50
2022-08-22T15:27:33.922Z,31.80
2022-08-22T15:30:05.274Z,34.80
2022-08-22T15:32:41.739Z,28.10
2022-08-22T15:35:17.800Z,29.80
2022-08-22T15:38:09.042Z,41.50
2022-08-22T15:40:44.322Z,54.90
2022-08-22T15:43:42.201Z,40.00
2022-08-22T15:46:17.827Z,32.80
2022-08-22T15:49:06.536Z,39.80
2022-08-22T15:51:43.272Z,34.20
2022-08-22T15:54:24.963Z,21.10
2022-08-22T15:56:53.278Z,44.50
2022-08-22T15:59:23.413Z,30.80
2022-08-22T16:01:57.308Z,38.20
2022-08-22T16:04:40.446Z,26.50
2022-08-22T16:07:23.599Z,38.00
2022-08-22T16:09:55.405Z,30.40
2022-08-22T16:12:39.798Z,28.40
2022-08-22T16:15:29.964Z,35.00
2022-08-22T16:17:58.023Z,32.20
2022-08-22T16:20:25.078Z,30.80
2022-08-22T16:22:58.281Z,30.10
2022-08-22T16:25:50.684Z,32.30
2022-08-22T16:28:31.652Z,25.20
2022-08-22T16:31:25.014Z,28.10
2022-08-22T16:33:52.188Z,23.30
2022-08-22T16:36:38.041Z,33.40
2022-08-22T16:39:22.726Z,32.80
2022-08-22T16:41:49.794Z,35.40
2022-08-22T16:44:29.039Z,31.60
2022-08-22T16:47:18.912Z,31.10
2022-08-22T16:49:52.223Z,33.30
2022-08-22T16:52:25.416Z,42.10
2022-08-22T16:54:55.962Z,30.60
2022-08-22T16:57:27.539Z,36.20
2022-08-22T17:00:13.329Z,31.70
2022-08-22T17:03:06.888Z,37.90
2022-08-22T17:06:09.506Z,37.30
2022-08-22T17:08:58.539Z,34.80
2022-08-22T17:11:50.840Z,30.20
2022-08-22T17:14:32.606Z,31.50
2022-08-22T17:17:35.149Z,24.10
2022-08-22T17:20:11.165Z,30.70
2022-08-22T17:23:03.038Z,34.40
2022-08-22T17:25:36.588Z,38.90
2022-08-22T17:28:35.122Z,35.00
2022-08-22T17:31:26.252Z,45.60
2022-08-22T17:34:14.387Z,41.40
2022-08-22T17:37:09.410Z,24.50
2022-08-22T17:39:56.029Z,36.60
2022-08-22T17:42:42.041Z,31.90
2022-08-22T17:45:18.148Z,33.70
2022-08-22T17:48:05.470Z,38.30
2022-08-22T17:50:46.359Z,48.00
2022-08-22T17:53:45.017Z,27.80
2022-08-22T17:56:28.327Z,34.60
2022-08-22T17:59:05.598Z,35.70
2022-08-22T18:01:50.255Z,37.30
2022-08-22T18:04:46.857Z,41.10
2022-08-22T18:07:14.607Z,33.50
2022-08-22T18:09:57.067Z,35.40
2022-08-22T18:12:40.384Z,42.00
2022-08-22T18:15:34.153Z,42.50
2022-08-22T18:18:09.570Z,23.20
2022-08-22T18:21:03.279Z,51.10
2022-08-22T18:23:44.271Z,39.20
2022-08-22T18:26:42.597Z,31.50
2022-08-22T18:29:16.346Z,31.90
2022-08-22T18:31:52.430Z,43.30
2022-08-22T18:34:31.794Z,34.50
2022-08-22T18:37:26.096Z,32.60
2022-08-22T18:40:01.300Z,25.70
2022-08-22T18:42:37.092Z,27.00
2022-08-22T18:45:04.595Z,26.70
2022-08-22T18:47:34.700Z,29.10
2022-08-22T18:50:32.614Z,35.80
2022-08-22T18:53:00.310Z,26.90
2022-08-22T18:55:27.844Z,29.40
2022-08-22T18:58:18.121Z,26.50
2022-08-22T19:01:06.272Z,32.10
2022-08-22T19:04:03.976Z,36.20
2022-08-22T19:06:45.295Z,28.20
2022-08-22T19:09:32.343Z,31.40
2022-08-22T19:12:19.622Z,26.80
2022-08-22T19:15:14.984Z,36.70
2022-08-22T19:17:45.097Z,32.60
2022-08-22T19:20:56.630Z,35.90
2022-08-22T19:23:32.933Z,34.00
2022-08-22T19:26:24.675Z,36.20
2022-08-22T19:29:30.491Z,29.20
2022-08-22T19:32:02.139Z,27.90
2022-08-22T19:34:39.899Z,30.60
2022-08-22T19:37:30.729Z,31.20
2022-08-22T19:40:12.082Z,27.20
2022-08-22T19:42:44.205Z,34.20
2022-08-22T19:45:29.203Z,30.60
2022-08-22T19:48:15.716Z,26.80
2022-08-22T19:50:44.040Z,38.80
2022-08-22T19:53:40.185Z,37.00
2022-08-22T19:56:20.421Z,37.80
2022-08-22T19:59:02.812Z,34.80
2022-08-22T20:01:56.332Z,29.20
2022-08-22T20:04:39.348Z,24.70
2022-08-22T20:07:21.484Z,23.10
2022-08-22T20:10:19.089Z,35.20
2022-08-22T20:12:55.561Z,29.00
2022-08-22T20:15:27.450Z,23.40
2022-08-22T20:20:59.428Z,26.60
2022-08-22T20:23:31.724Z,25.40
2022-08-22T20:25:59.880Z,25.10
2022-08-22T20:28:30.006Z,28.00
2022-08-22T20:32:15.135Z,20.30
2022-08-22T20:34:43.376Z,30.90
2022-08-22T20:37:40.273Z,24.40
2022-08-22T20:40:55.261Z,21.30
2022-08-22T20:43:24.117Z,27.00
2022-08-22T20:46:33.387Z,19.50
2022-08-22T20:49:01.364Z,30.40
2022-08-22T20:51:31.706Z,16.80
2022-08-22T20:54:10.091Z,18.30
2022-08-22T20:56:53.633Z,22.40
2022-08-22T20:59:41.665Z,27.10
2022-08-22T21:02:32.831Z,16.50
2022-08-22T21:05:04.405Z,20.20
2022-08-22T21:07:35.692Z,24.80
2022-08-22T21:10:27.316Z,21.40
2022-08-22T21:13:11.647Z,25.60
2022-08-22T21:15:53.114Z,22.20
2022-08-22T21:18:36.131Z,34.00
2022-08-22T21:21:17.340Z,15.90
2022-08-22T21:23:51.619Z,18.30
2022-08-22T21:26:28.594Z,26.20
2022-08-22T21:29:06.961Z,20.80
2022-08-22T21:31:47.621Z,29.60
2022-08-22T21:34:27.578Z,19.40
2022-08-22T21:36:59.833Z,24.80
2022-08-22T21:39:34.234Z,14.20
2022-08-22T21:42:01.274Z,19.20
2022-08-22T21:44:32.318Z,16.60
2022-08-22T21:47:33.258Z,19.40
2022-08-22T21:50:26.120Z,21.10
2022-08-22T21:52:56.140Z,14.50
2022-08-22T21:55:29.686Z,19.80
2022-08-22T21:58:09.053Z,26.10
2022-08-22T22:00:48.697Z,22.30
2022-08-22T22:03:20.394Z,15.60
2022-08-22T22:05:53.109Z,21.30
2022-08-22T22:08:20.477Z,16.20
2022-08-22T22:10:49.279Z,18.10
2022-08-22T22:13:19.170Z,14.00
2022-08-22T22:15:48.972Z,17.00
2022-08-22T22:18:19.692Z,13.50
2022-08-22T22:20:48.343Z,21.50
2022-08-22T22:23:15.464Z,15.20
2022-08-22T22:25:44.291Z,19.00
2022-08-22T22:28:33.957Z,16.80
2022-08-22T22:31:01.344Z,13.00
2022-08-22T22:33:32.072Z,12.20
2022-08-22T22:36:05.338Z,17.50
2022-08-22T22:38:32.912Z,21.10
2022-08-22T22:41:00.075Z,23.90
2022-08-22T22:43:28.154Z,9.20
2022-08-22T22:45:55.267Z,13.00
2022-08-22T22:48:24.858Z,21.20
2022-08-22T22:50:55.270Z,17.10
2022-08-22T22:53:33.838Z,15.00
2022-08-22T22:56:06.188Z,18.90
2022-08-22T22:58:35.635Z,25.20
2022-08-22T23:01:11.362Z,18.70
2022-08-22T23:03:38.839Z,15.70
2022-08-22T23:06:15.980Z,14.80
2022-08-22T23:08:43.262Z,15.90
2022-08-22T23:11:18.048Z,25.80
2022-08-22T23:13:45.679Z,19.90
2022-08-22T23:16:16.646Z,10.00
2022-08-22T23:18:44.469Z,13.00
2022-08-22T23:21:20.406Z,10.60
2022-08-22T23:23:48.710Z,20.80
2022-08-22T23:26:16.491Z,10.90
2022-08-22T23:28:44.433Z,9.70
2022-08-22T23:31:19.044Z,14.60
2022-08-22T23:33:46.696Z,12.80
2022-08-22T23:36:18.924Z,15.40
2022-08-22T23:38:47.224Z,12.30
2022-08-22T23:41:17.974Z,21.00
2022-08-22T23:43:46.855Z,16.50
2022-08-22T23:46:16.396Z,13.10
2022-08-22T23:48:44.370Z,9.60
2022-08-22T23:51:13.328Z,13.90
2022-08-22T23:53:41.731Z,16.20
2022-08-22T23:56:09.865Z,13.60
2022-08-22T23:58:49.076Z,20.10
